Avon, Illinois
Current Conditions -  °F | °C
As of 10:35 PM on Sunday 25 Jan 2015 (Local Time) from KMQB Reporting Station
Scattered Clouds Scattered Clouds  
Wind Chill: -9°   Ceiling: Unl
Heat Index: -4°   Visibility: 10mi
Dew Point: -7°   Wind: 9mph
Humidity: 83%   Direction: 360°N
Pressure: 30.06"   Gusts: NA
Location:  40.66°N, 90.43°W
Report Text: KMQB 260435Z AUTO 36008KT 10SM SCT038 M04/M06 A3006 RMK AO2 T10401065
Loading
Personal Weather Stations






























Interactive Weather Map New forecast layout! Learn more

10-Day Weather Forecast

Advertisements
Track Severe Weather on mobile